EET,Max TemperatureF,Mean TemperatureF,Min TemperatureF,Max Dew PointF,MeanDew PointF,Min DewpointF,Max Humidity, Mean Humidity, Min Humidity, Max Sea Level PressureIn, Mean Sea Level PressureIn, Min Sea Level PressureIn, Max VisibilityMiles, Mean VisibilityMiles, Min VisibilityMiles, Max Wind SpeedMPH, Mean Wind SpeedMPH, Max Gust SpeedMPH,PrecipitationIn, CloudCover, Events, WindDirDegrees
2012-11-1,73,72,71,64,61,59,78,67,61,29.98,29.93,29.86,6,6,6,16,11,,0.00,7,,102
2012-11-2,77,75,73,75,73,72,94,92,89,29.89,29.86,29.83,6,6,6,15,11,,0.00,5,,130
2012-11-3,78,76,73,68,63,61,83,61,54,29.95,29.95,29.95,6,6,6,13,8,,0.00,2,,314
2012-11-4,77,72,66,68,64,61,94,72,57,30.04,30.02,30.01,6,6,6,10,7,,0.00,1,,309
2012-11-5,77,72,68,66,63,61,83,70,61,30.01,30.00,29.98,6,6,6,10,4,,0.00,2,,201
2012-11-6,75,72,69,63,60,57,73,62,53,30.01,29.99,29.98,6,6,6,8,4,,0.00,1,,209
2012-11-7,77,74,71,70,66,63,94,73,61,30.01,30.00,29.98,6,6,6,16,11,,0.00,3,,264
2012-11-8,69,68,64,66,63,61,94,84,73,29.80,29.75,29.71,6,6,5,25,21,36,0.00,3,Rain,292
2012-11-9,68,65,62,52,49,43,68,56,40,29.77,29.77,29.74,6,6,6,46,36,60,0.00,3,,306
2012-11-10,69,66,64,52,48,46,64,49,43,29.89,29.89,29.86,6,6,6,32,25,44,0.00,3,,311
2012-11-11,69,66,62,48,47,46,55,50,46,30.04,30.01,29.98,6,6,6,34,30,38,0.00,3,,316
2012-11-12,69,66,64,52,49,46,60,51,46,30.06,30.05,30.04,6,6,6,29,22,,0.00,1,,313
2012-11-13,71,70,68,57,57,55,68,63,57,30.01,30.01,30.01,6,6,6,23,22,,0.00,3,,307
2012-11-14,71,68,66,61,58,57,83,71,60,30.04,30.02,30.01,6,6,6,21,17,,0.00,1,,300
2012-11-15,71,70,66,52,50,48,56,50,43,30.04,30.04,30.04,6,6,6,9,7,,0.00,1,,340
2012-11-16,71,68,66,61,58,54,73,70,64,30.04,30.03,29.98,6,6,6,13,7,,0.00,5,,69
2012-11-17,64,62,60,61,59,59,94,93,88,29.92,29.88,29.83,6,6,5,12,9,,0.00,5,Rain-Thunderstorm,224
2012-11-18,71,66,60,66,63,59,94,83,73,29.92,29.91,29.89,6,6,6,9,5,,0.00,3,,305
2012-11-19,69,64,59,61,59,55,88,79,73,30.01,29.98,29.95,6,6,6,6,2,,0.00,3,,250
2012-11-20,69,68,68,63,63,63,83,81,78,29.98,29.96,29.95,6,6,6,14,13,,0.00,5,,137
2012-11-21,66,63,60,61,59,57,94,87,82,29.98,29.95,29.89,6,6,5,17,9,,0.00,3,Rain-Thunderstorm,24
2012-11-22,68,68,68,59,58,57,73,71,68,29.89,29.89,29.89,6,6,6,22,19,,0.00,3,,325
2012-11-23,68,65,62,57,57,55,82,73,68,30.01,29.99,29.95,6,6,6,30,24,39,0.00,1,,320
2012-11-24,66,64,62,54,53,52,72,68,64,30.01,30.00,29.98,6,6,6,20,15,,0.00,6,,318
2012-11-25,66,64,62,54,52,50,72,62,56,30.04,30.02,30.01,6,6,6,23,18,,0.00,2,,320
2012-11-26,66,63,60,52,51,50,68,63,56,30.06,30.05,30.04,6,6,6,23,21,,0.00,3,,320
2012-11-27,66,65,62,50,50,50,63,59,56,30.04,30.04,30.04,6,6,6,13,12,,0.00,1,,293
2012-11-28,66,62,57,54,51,50,77,65,56,30.09,30.08,30.06,6,6,6,7,6,,0.00,4,,253
2012-11-29,69,68,68,59,57,54,73,67,56,29.95,29.95,29.95,6,6,6,16,16,,0.00,5,,142
2012-11-30,69,68,68,64,62,54,88,78,56,29.95,29.94,29.92,6,6,6,25,22,,0.00,6,,120